sensor_id;sensor_type;location;lat;lon;timestamp;temperature;humidity
9118;DHT22;4594;50.994;7.126;2024-03-23T00:51:38;11.70;47.80
9118;DHT22;4594;50.994;7.126;2024-03-23T00:54:04;11.70;47.90
9118;DHT22;4594;50.994;7.126;2024-03-23T00:56:30;11.70;48.10
9118;DHT22;4594;50.994;7.126;2024-03-23T00:58:55;11.70;48.30
9118;DHT22;4594;50.994;7.126;2024-03-23T01:01:21;11.80;48.50
9118;DHT22;4594;50.994;7.126;2024-03-23T01:03:47;11.60;48.40
9118;DHT22;4594;50.994;7.126;2024-03-23T01:06:12;11.60;48.60
9118;DHT22;4594;50.994;7.126;2024-03-23T01:08:38;11.60;48.80
9118;DHT22;4594;50.994;7.126;2024-03-23T01:11:04;11.50;48.90
9118;DHT22;4594;50.994;7.126;2024-03-23T01:13:29;11.50;48.90
9118;DHT22;4594;50.994;7.126;2024-03-23T01:15:57;11.50;49.10
9118;DHT22;4594;50.994;7.126;2024-03-23T01:18:23;11.50;49.20
9118;DHT22;4594;50.994;7.126;2024-03-23T01:20:51;11.40;49.30
9118;DHT22;4594;50.994;7.126;2024-03-23T01:23:18;11.50;49.50
9118;DHT22;4594;50.994;7.126;2024-03-23T01:25:51;11.50;49.70
9118;DHT22;4594;50.994;7.126;2024-03-23T01:28:20;11.80;50.00
9118;DHT22;4594;50.994;7.126;2024-03-23T01:30:46;11.40;50.00
9118;DHT22;4594;50.994;7.126;2024-03-23T01:33:13;11.40;50.20
9118;DHT22;4594;50.994;7.126;2024-03-23T01:35:38;11.40;50.30
9118;DHT22;4594;50.994;7.126;2024-03-23T01:38:04;11.40;50.30
9118;DHT22;4594;50.994;7.126;2024-03-23T01:40:30;11.40;50.30
9118;DHT22;4594;50.994;7.126;2024-03-23T01:42:57;11.40;50.60
9118;DHT22;4594;50.994;7.126;2024-03-23T01:45:24;11.40;50.40
9118;DHT22;4594;50.994;7.126;2024-03-23T01:47:51;11.30;50.20
9118;DHT22;4594;50.994;7.126;2024-03-23T01:50:21;11.70;50.50
9118;DHT22;4594;50.994;7.126;2024-03-23T01:52:49;11.30;50.10
9118;DHT22;4594;50.994;7.126;2024-03-23T01:55:15;11.30;50.10
9118;DHT22;4594;50.994;7.126;2024-03-23T01:57:41;11.30;50.20
9118;DHT22;4594;50.994;7.126;2024-03-23T02:00:08;11.20;50.10
9118;DHT22;4594;50.994;7.126;2024-03-23T02:02:44;11.20;50.20
9118;DHT22;4594;50.994;7.126;2024-03-23T02:05:11;11.10;50.00
9118;DHT22;4594;50.994;7.126;2024-03-23T02:07:42;11.20;50.20
9118;DHT22;4594;50.994;7.126;2024-03-23T02:10:11;11.10;50.10
9118;DHT22;4594;50.994;7.126;2024-03-23T02:12:40;11.00;50.10
9118;DHT22;4594;50.994;7.126;2024-03-23T02:15:06;11.10;50.20
9118;DHT22;4594;50.994;7.126;2024-03-23T02:17:35;11.00;50.10
9118;DHT22;4594;50.994;7.126;2024-03-23T02:20:02;11.00;50.20
9118;DHT22;4594;50.994;7.126;2024-03-23T02:22:38;10.90;50.10
9118;DHT22;4594;50.994;7.126;2024-03-23T02:25:05;10.90;49.70
9118;DHT22;4594;50.994;7.126;2024-03-23T02:27:31;10.80;50.10
9118;DHT22;4594;50.994;7.126;2024-03-23T02:29:58;10.80;50.20
9118;DHT22;4594;50.994;7.126;2024-03-23T02:32:24;10.70;50.20
9118;DHT22;4594;50.994;7.126;2024-03-23T02:34:49;10.70;50.20
9118;DHT22;4594;50.994;7.126;2024-03-23T02:37:15;10.70;50.30
9118;DHT22;4594;50.994;7.126;2024-03-23T02:39:41;10.70;50.30
9118;DHT22;4594;50.994;7.126;2024-03-23T02:42:06;10.60;50.30
9118;DHT22;4594;50.994;7.126;2024-03-23T02:44:32;10.60;50.40
9118;DHT22;4594;50.994;7.126;2024-03-23T02:46:58;10.50;50.30
9118;DHT22;4594;50.994;7.126;2024-03-23T02:49:23;10.50;50.40
9118;DHT22;4594;50.994;7.126;2024-03-23T02:51:49;10.50;50.40
9118;DHT22;4594;50.994;7.126;2024-03-23T02:54:15;11.00;50.70
9118;DHT22;4594;50.994;7.126;2024-03-23T02:56:41;10.40;50.10
9118;DHT22;4594;50.994;7.126;2024-03-23T02:59:07;10.30;49.90
9118;DHT22;4594;50.994;7.126;2024-03-23T03:01:32;10.30;49.80
9118;DHT22;4594;50.994;7.126;2024-03-23T03:03:58;10.20;49.70
9118;DHT22;4594;50.994;7.126;2024-03-23T03:06:25;10.20;49.70
9118;DHT22;4594;50.994;7.126;2024-03-23T03:08:50;10.10;49.90
9118;DHT22;4594;50.994;7.126;2024-03-23T03:11:16;10.10;49.60
9118;DHT22;4594;50.994;7.126;2024-03-23T03:13:42;10.00;49.60
9118;DHT22;4594;50.994;7.126;2024-03-23T03:16:11;10.00;49.60
9118;DHT22;4594;50.994;7.126;2024-03-23T03:18:37;9.90;50.30
9118;DHT22;4594;50.994;7.126;2024-03-23T03:21:04;9.90;50.60
9118;DHT22;4594;50.994;7.126;2024-03-23T03:23:31;9.90;50.60
9118;DHT22;4594;50.994;7.126;2024-03-23T03:25:57;9.80;50.60
9118;DHT22;4594;50.994;7.126;2024-03-23T03:28:23;9.70;50.50
9118;DHT22;4594;50.994;7.126;2024-03-23T03:30:49;9.70;50.60
9118;DHT22;4594;50.994;7.126;2024-03-23T03:33:15;9.60;50.60
9118;DHT22;4594;50.994;7.126;2024-03-23T03:35:40;9.60;50.70
9118;DHT22;4594;50.994;7.126;2024-03-23T03:38:06;10.80;51.20
9118;DHT22;4594;50.994;7.126;2024-03-23T03:40:32;9.50;50.80
9118;DHT22;4594;50.994;7.126;2024-03-23T03:42:57;9.50;51.00
9118;DHT22;4594;50.994;7.126;2024-03-23T03:45:23;10.30;50.70
9118;DHT22;4594;50.994;7.126;2024-03-23T03:47:49;9.50;50.90
9118;DHT22;4594;50.994;7.126;2024-03-23T03:50:14;9.40;50.90
9118;DHT22;4594;50.994;7.126;2024-03-23T03:52:40;9.40;51.00
9118;DHT22;4594;50.994;7.126;2024-03-23T03:55:14;9.40;51.00
9118;DHT22;4594;50.994;7.126;2024-03-23T03:57:40;9.30;50.60
9118;DHT22;4594;50.994;7.126;2024-03-23T04:00:06;9.50;51.30
9118;DHT22;4594;50.994;7.126;2024-03-23T04:02:39;9.30;51.20
9118;DHT22;4594;50.994;7.126;2024-03-23T04:05:05;9.30;51.30
9118;DHT22;4594;50.994;7.126;2024-03-23T04:07:31;9.30;51.50
9118;DHT22;4594;50.994;7.126;2024-03-23T04:09:57;9.30;51.60
9118;DHT22;4594;50.994;7.126;2024-03-23T04:12:23;9.20;51.60
9118;DHT22;4594;50.994;7.126;2024-03-23T04:14:49;9.20;51.70
9118;DHT22;4594;50.994;7.126;2024-03-23T04:17:15;9.20;51.80
9118;DHT22;4594;50.994;7.126;2024-03-23T04:19:41;9.20;51.90
9118;DHT22;4594;50.994;7.126;2024-03-23T04:22:07;9.20;52.00
9118;DHT22;4594;50.994;7.126;2024-03-23T04:24:33;9.20;52.10
9118;DHT22;4594;50.994;7.126;2024-03-23T04:26:59;9.20;52.00
9118;DHT22;4594;50.994;7.126;2024-03-23T04:29:25;9.20;52.10
9118;DHT22;4594;50.994;7.126;2024-03-23T04:31:52;9.20;52.30
9118;DHT22;4594;50.994;7.126;2024-03-23T04:34:18;9.20;52.40
9118;DHT22;4594;50.994;7.126;2024-03-23T04:36:44;9.20;52.50
9118;DHT22;4594;50.994;7.126;2024-03-23T04:39:09;9.20;52.70
9118;DHT22;4594;50.994;7.126;2024-03-23T04:41:35;9.20;52.70
9118;DHT22;4594;50.994;7.126;2024-03-23T04:44:01;9.90;53.30
9118;DHT22;4594;50.994;7.126;2024-03-23T04:46:27;9.20;52.80
9118;DHT22;4594;50.994;7.126;2024-03-23T04:48:53;9.20;52.90
9118;DHT22;4594;50.994;7.126;2024-03-23T04:51:22;9.20;52.90
9118;DHT22;4594;50.994;7.126;2024-03-23T04:53:49;10.70;53.20
9118;DHT22;4594;50.994;7.126;2024-03-23T04:56:16;9.50;53.40
9118;DHT22;4594;50.994;7.126;2024-03-23T04:58:43;9.20;53.30
9118;DHT22;4594;50.994;7.126;2024-03-23T05:01:09;9.20;53.40
9118;DHT22;4594;50.994;7.126;2024-03-23T05:03:36;9.20;53.40
9118;DHT22;4594;50.994;7.126;2024-03-23T05:06:01;9.20;53.50
9118;DHT22;4594;50.994;7.126;2024-03-23T05:08:27;9.20;53.60
9118;DHT22;4594;50.994;7.126;2024-03-23T05:10:53;9.30;53.70
9118;DHT22;4594;50.994;7.126;2024-03-23T05:13:18;9.20;53.80
9118;DHT22;4594;50.994;7.126;2024-03-23T05:15:44;9.30;53.90
9118;DHT22;4594;50.994;7.126;2024-03-23T05:18:17;9.40;54.00
9118;DHT22;4594;50.994;7.126;2024-03-23T05:20:43;9.30;53.90
9118;DHT22;4594;50.994;7.126;2024-03-23T05:23:09;9.30;53.90
9118;DHT22;4594;50.994;7.126;2024-03-23T05:25:35;9.30;53.90
9118;DHT22;4594;50.994;7.126;2024-03-23T05:28:00;10.50;54.00
9118;DHT22;4594;50.994;7.126;2024-03-23T05:30:26;9.30;54.10
9118;DHT22;4594;50.994;7.126;2024-03-23T05:32:52;9.20;54.00
9118;DHT22;4594;50.994;7.126;2024-03-23T05:35:18;9.30;54.10
9118;DHT22;4594;50.994;7.126;2024-03-23T05:37:44;9.30;54.20
9118;DHT22;4594;50.994;7.126;2024-03-23T05:40:10;9.30;54.20
9118;DHT22;4594;50.994;7.126;2024-03-23T05:42:38;9.30;54.30
9118;DHT22;4594;50.994;7.126;2024-03-23T05:45:04;9.40;54.60
9118;DHT22;4594;50.994;7.126;2024-03-23T05:47:32;9.30;54.60
9118;DHT22;4594;50.994;7.126;2024-03-23T05:49:57;9.30;54.60
9118;DHT22;4594;50.994;7.126;2024-03-23T05:52:23;9.40;54.70
9118;DHT22;4594;50.994;7.126;2024-03-23T05:54:51;9.40;55.00
9118;DHT22;4594;50.994;7.126;2024-03-23T05:57:17;9.40;54.80
9118;DHT22;4594;50.994;7.126;2024-03-23T05:59:44;9.50;55.10
9118;DHT22;4594;50.994;7.126;2024-03-23T06:02:10;9.40;55.20
9118;DHT22;4594;50.994;7.126;2024-03-23T06:04:36;9.40;55.30
9118;DHT22;4594;50.994;7.126;2024-03-23T06:07:02;9.50;55.50
9118;DHT22;4594;50.994;7.126;2024-03-23T06:09:27;9.60;55.70
9118;DHT22;4594;50.994;7.126;2024-03-23T06:11:56;9.50;55.70
9118;DHT22;4594;50.994;7.126;2024-03-23T06:14:22;9.50;55.70
9118;DHT22;4594;50.994;7.126;2024-03-23T06:16:47;9.60;55.90
9118;DHT22;4594;50.994;7.126;2024-03-23T06:19:14;9.60;56.00
9118;DHT22;4594;50.994;7.126;2024-03-23T06:21:43;10.50;55.90
9118;DHT22;4594;50.994;7.126;2024-03-23T06:24:11;9.60;55.90
9118;DHT22;4594;50.994;7.126;2024-03-23T06:26:37;10.20;55.70
9118;DHT22;4594;50.994;7.126;2024-03-23T06:29:02;9.70;56.20
9118;DHT22;4594;50.994;7.126;2024-03-23T06:31:28;9.70;56.60
9118;DHT22;4594;50.994;7.126;2024-03-23T06:33:55;9.70;56.30
9118;DHT22;4594;50.994;7.126;2024-03-23T06:36:22;10.70;56.20
9118;DHT22;4594;50.994;7.126;2024-03-23T06:38:48;9.80;56.50
9118;DHT22;4594;50.994;7.126;2024-03-23T06:41:14;10.70;56.70
9118;DHT22;4594;50.994;7.126;2024-03-23T06:43:40;9.80;56.80
9118;DHT22;4594;50.994;7.126;2024-03-23T06:46:06;9.80;56.80
9118;DHT22;4594;50.994;7.126;2024-03-23T06:48:31;9.80;56.80
9118;DHT22;4594;50.994;7.126;2024-03-23T06:50:57;9.90;57.00
9118;DHT22;4594;50.994;7.126;2024-03-23T06:53:23;9.90;57.20
9118;DHT22;4594;50.994;7.126;2024-03-23T06:55:53;9.90;57.40
9118;DHT22;4594;50.994;7.126;2024-03-23T06:58:24;10.00;56.50
9118;DHT22;4594;50.994;7.126;2024-03-23T07:00:50;10.00;56.50
9118;DHT22;4594;50.994;7.126;2024-03-23T07:03:19;10.30;57.00
9118;DHT22;4594;50.994;7.126;2024-03-23T07:05:46;10.10;56.70
9118;DHT22;4594;50.994;7.126;2024-03-23T07:08:12;11.20;58.10
9118;DHT22;4594;50.994;7.126;2024-03-23T07:10:41;10.30;58.10
9118;DHT22;4594;50.994;7.126;2024-03-23T07:13:07;11.80;59.80
9118;DHT22;4594;50.994;7.126;2024-03-23T07:15:33;10.60;59.90
9118;DHT22;4594;50.994;7.126;2024-03-23T07:17:59;11.80;62.00
9118;DHT22;4594;50.994;7.126;2024-03-23T07:20:25;11.50;61.50
9118;DHT22;4594;50.994;7.126;2024-03-23T07:22:50;11.40;61.20
9118;DHT22;4594;50.994;7.126;2024-03-23T07:25:16;12.80;61.80
9118;DHT22;4594;50.994;7.126;2024-03-23T07:28:02;11.60;59.80
9118;DHT22;4594;50.994;7.126;2024-03-23T07:30:40;11.70;59.30
9118;DHT22;4594;50.994;7.126;2024-03-23T07:33:05;11.80;59.10
9118;DHT22;4594;50.994;7.126;2024-03-23T07:35:31;11.90;58.90
9118;DHT22;4594;50.994;7.126;2024-03-23T07:37:57;12.00;58.90
9118;DHT22;4594;50.994;7.126;2024-03-23T07:40:23;12.00;58.90
9118;DHT22;4594;50.994;7.126;2024-03-23T07:42:48;12.10;59.80
9118;DHT22;4594;50.994;7.126;2024-03-23T07:45:14;12.30;60.70
9118;DHT22;4594;50.994;7.126;2024-03-23T07:47:39;12.50;61.20
9118;DHT22;4594;50.994;7.126;2024-03-23T07:50:05;12.60;61.10
9118;DHT22;4594;50.994;7.126;2024-03-23T07:52:31;12.80;60.80
9118;DHT22;4594;50.994;7.126;2024-03-23T07:54:57;13.00;60.60
9118;DHT22;4594;50.994;7.126;2024-03-23T07:57:23;13.00;60.40
9118;DHT22;4594;50.994;7.126;2024-03-23T07:59:49;13.20;60.50
9118;DHT22;4594;50.994;7.126;2024-03-23T08:02:15;13.40;64.00
9118;DHT22;4594;50.994;7.126;2024-03-23T08:04:40;13.90;66.30
9118;DHT22;4594;50.994;7.126;2024-03-23T08:07:06;14.00;65.70
9118;DHT22;4594;50.994;7.126;2024-03-23T08:09:32;14.30;64.30
9118;DHT22;4594;50.994;7.126;2024-03-23T08:11:57;14.50;62.60
9118;DHT22;4594;50.994;7.126;2024-03-23T08:14:23;14.60;62.40
9118;DHT22;4594;50.994;7.126;2024-03-23T08:16:48;14.70;61.40
9118;DHT22;4594;50.994;7.126;2024-03-23T08:19:15;14.80;60.60
9118;DHT22;4594;50.994;7.126;2024-03-23T08:21:41;14.90;60.60
9118;DHT22;4594;50.994;7.126;2024-03-23T08:24:07;15.00;62.50
9118;DHT22;4594;50.994;7.126;2024-03-23T08:26:33;15.20;62.90
9118;DHT22;4594;50.994;7.126;2024-03-23T08:28:58;15.50;64.70
9118;DHT22;4594;50.994;7.126;2024-03-23T08:31:24;15.80;67.20
9118;DHT22;4594;50.994;7.126;2024-03-23T08:33:50;16.30;70.70
9118;DHT22;4594;50.994;7.126;2024-03-23T08:36:15;16.80;73.30
9118;DHT22;4594;50.994;7.126;2024-03-23T08:38:42;17.40;74.30
9118;DHT22;4594;50.994;7.126;2024-03-23T08:41:11;18.00;75.70
9118;DHT22;4594;50.994;7.126;2024-03-23T08:43:38;18.70;72.90
9118;DHT22;4594;50.994;7.126;2024-03-23T08:46:06;19.10;71.00
9118;DHT22;4594;50.994;7.126;2024-03-23T08:48:37;19.50;65.90
9118;DHT22;4594;50.994;7.126;2024-03-23T08:51:08;19.60;61.60
9118;DHT22;4594;50.994;7.126;2024-03-23T08:53:35;19.60;57.20
9118;DHT22;4594;50.994;7.126;2024-03-23T08:56:02;19.60;56.80
9118;DHT22;4594;50.994;7.126;2024-03-23T08:58:30;19.40;55.80
9118;DHT22;4594;50.994;7.126;2024-03-23T09:01:03;19.40;57.50
9118;DHT22;4594;50.994;7.126;2024-03-23T09:03:31;19.50;57.80
9118;DHT22;4594;50.994;7.126;2024-03-23T09:05:57;19.60;59.80
9118;DHT22;4594;50.994;7.126;2024-03-23T09:08:24;19.80;58.40
9118;DHT22;4594;50.994;7.126;2024-03-23T09:10:50;19.80;57.10
9118;DHT22;4594;50.994;7.126;2024-03-23T09:13:17;20.00;59.10
9118;DHT22;4594;50.994;7.126;2024-03-23T09:15:52;20.20;61.20
9118;DHT22;4594;50.994;7.126;2024-03-23T09:18:22;20.60;58.20
9118;DHT22;4594;50.994;7.126;2024-03-23T09:20:48;20.90;61.40
9118;DHT22;4594;50.994;7.126;2024-03-23T09:23:13;21.10;58.20
9118;DHT22;4594;50.994;7.126;2024-03-23T09:25:39;21.20;56.00
9118;DHT22;4594;50.994;7.126;2024-03-23T09:28:08;21.20;56.50
9118;DHT22;4594;50.994;7.126;2024-03-23T09:30:35;21.30;53.80
9118;DHT22;4594;50.994;7.126;2024-03-23T09:33:02;21.20;53.70
9118;DHT22;4594;50.994;7.126;2024-03-23T09:35:29;21.40;54.70
9118;DHT22;4594;50.994;7.126;2024-03-23T09:37:54;21.60;57.30
9118;DHT22;4594;50.994;7.126;2024-03-23T09:40:20;22.00;59.80
9118;DHT22;4594;50.994;7.126;2024-03-23T09:42:50;22.50;60.80
9118;DHT22;4594;50.994;7.126;2024-03-23T09:45:27;23.00;59.20
9118;DHT22;4594;50.994;7.126;2024-03-23T09:47:55;23.60;56.80
9118;DHT22;4594;50.994;7.126;2024-03-23T09:50:22;24.10;61.10
9118;DHT22;4594;50.994;7.126;2024-03-23T09:52:48;24.50;58.90
9118;DHT22;4594;50.994;7.126;2024-03-23T09:55:15;24.80;55.20
9118;DHT22;4594;50.994;7.126;2024-03-23T09:57:41;24.90;53.40
9118;DHT22;4594;50.994;7.126;2024-03-23T10:00:08;25.00;51.80
9118;DHT22;4594;50.994;7.126;2024-03-23T10:02:35;24.80;49.60
9118;DHT22;4594;50.994;7.126;2024-03-23T10:05:01;24.50;47.90
9118;DHT22;4594;50.994;7.126;2024-03-23T10:07:27;24.20;46.60
9118;DHT22;4594;50.994;7.126;2024-03-23T10:09:55;23.90;46.30
9118;DHT22;4594;50.994;7.126;2024-03-23T10:12:23;23.50;45.70
9118;DHT22;4594;50.994;7.126;2024-03-23T10:14:50;23.20;45.10
9118;DHT22;4594;50.994;7.126;2024-03-23T10:17:17;22.80;44.60
9118;DHT22;4594;50.994;7.126;2024-03-23T10:19:47;22.40;43.80
9118;DHT22;4594;50.994;7.126;2024-03-23T10:22:24;22.00;43.40
9118;DHT22;4594;50.994;7.126;2024-03-23T10:24:52;21.60;42.50
9118;DHT22;4594;50.994;7.126;2024-03-23T10:27:20;21.40;44.40
9118;DHT22;4594;50.994;7.126;2024-03-23T10:29:47;21.40;45.70
9118;DHT22;4594;50.994;7.126;2024-03-23T10:32:16;21.60;46.80
9118;DHT22;4594;50.994;7.126;2024-03-23T10:34:43;21.70;46.50
9118;DHT22;4594;50.994;7.126;2024-03-23T10:37:09;21.90;46.00
9118;DHT22;4594;50.994;7.126;2024-03-23T10:39:37;21.90;45.50
9118;DHT22;4594;50.994;7.126;2024-03-23T10:42:05;22.00;45.50
9118;DHT22;4594;50.994;7.126;2024-03-23T10:44:33;22.00;44.80
9118;DHT22;4594;50.994;7.126;2024-03-23T10:47:00;21.80;43.90
9118;DHT22;4594;50.994;7.126;2024-03-23T10:49:29;21.60;43.10
9118;DHT22;4594;50.994;7.126;2024-03-23T10:52:07;21.40;42.20
9118;DHT22;4594;50.994;7.126;2024-03-23T10:54:33;21.00;42.00
9118;DHT22;4594;50.994;7.126;2024-03-23T10:57:27;20.70;41.70
9118;DHT22;4594;50.994;7.126;2024-03-23T11:00:02;20.40;40.60
9118;DHT22;4594;50.994;7.126;2024-03-23T11:02:29;19.80;40.40
9118;DHT22;4594;50.994;7.126;2024-03-23T11:04:55;19.40;40.30
9118;DHT22;4594;50.994;7.126;2024-03-23T11:09:50;18.30;39.20
9118;DHT22;4594;50.994;7.126;2024-03-23T11:15:01;17.30;38.80
9118;DHT22;4594;50.994;7.126;2024-03-23T11:17:31;16.90;38.70
9118;DHT22;4594;50.994;7.126;2024-03-23T11:20:04;16.50;39.10
9118;DHT22;4594;50.994;7.126;2024-03-23T11:22:43;16.10;38.80
9118;DHT22;4594;50.994;7.126;2024-03-23T11:25:21;15.70;38.60
9118;DHT22;4594;50.994;7.126;2024-03-23T11:27:56;15.30;38.60
9118;DHT22;4594;50.994;7.126;2024-03-23T11:30:24;14.90;38.90
9118;DHT22;4594;50.994;7.126;2024-03-23T11:32:53;14.60;39.00
9118;DHT22;4594;50.994;7.126;2024-03-23T11:40:28;13.80;39.00
9118;DHT22;4594;50.994;7.126;2024-03-23T11:43:23;13.90;39.50
9118;DHT22;4594;50.994;7.126;2024-03-23T11:45:51;13.30;38.60
9118;DHT22;4594;50.994;7.126;2024-03-23T11:48:20;13.20;39.40
9118;DHT22;4594;50.994;7.126;2024-03-23T11:50:51;12.90;39.40
9118;DHT22;4594;50.994;7.126;2024-03-23T11:53:22;12.70;39.60
9118;DHT22;4594;50.994;7.126;2024-03-23T11:55:52;12.60;39.90
9118;DHT22;4594;50.994;7.126;2024-03-23T11:58:20;12.50;40.20
9118;DHT22;4594;50.994;7.126;2024-03-23T12:01:00;12.40;40.70
9118;DHT22;4594;50.994;7.126;2024-03-23T12:03:29;12.40;41.00
9118;DHT22;4594;50.994;7.126;2024-03-23T12:06:01;12.30;41.30
9118;DHT22;4594;50.994;7.126;2024-03-23T12:08:37;12.30;41.30
9118;DHT22;4594;50.994;7.126;2024-03-23T12:11:12;12.30;41.20
9118;DHT22;4594;50.994;7.126;2024-03-23T12:13:44;12.20;41.60
9118;DHT22;4594;50.994;7.126;2024-03-23T12:16:17;12.30;42.20
9118;DHT22;4594;50.994;7.126;2024-03-23T12:18:49;12.30;42.10
9118;DHT22;4594;50.994;7.126;2024-03-23T12:21:18;12.40;42.40
9118;DHT22;4594;50.994;7.126;2024-03-23T12:23:44;12.40;42.60
9118;DHT22;4594;50.994;7.126;2024-03-23T12:26:12;12.40;42.70
9118;DHT22;4594;50.994;7.126;2024-03-23T12:28:39;12.40;42.70
9118;DHT22;4594;50.994;7.126;2024-03-23T12:31:05;12.30;42.80
9118;DHT22;4594;50.994;7.126;2024-03-23T12:33:31;12.30;42.90
9118;DHT22;4594;50.994;7.126;2024-03-23T12:35:57;12.40;43.30
9118;DHT22;4594;50.994;7.126;2024-03-23T12:38:23;12.40;43.60
9118;DHT22;4594;50.994;7.126;2024-03-23T12:40:51;12.40;43.90
9118;DHT22;4594;50.994;7.126;2024-03-23T12:43:18;12.30;43.00
9118;DHT22;4594;50.994;7.126;2024-03-23T12:45:47;12.40;43.20
9118;DHT22;4594;50.994;7.126;2024-03-23T12:48:14;12.60;43.10
9118;DHT22;4594;50.994;7.126;2024-03-23T12:50:40;12.40;43.40
9118;DHT22;4594;50.994;7.126;2024-03-23T12:53:06;12.50;43.70
9118;DHT22;4594;50.994;7.126;2024-03-23T12:55:35;12.60;43.90
9118;DHT22;4594;50.994;7.126;2024-03-23T12:58:01;12.60;43.60
9118;DHT22;4594;50.994;7.126;2024-03-23T13:00:27;12.60;43.50
9118;DHT22;4594;50.994;7.126;2024-03-23T13:02:53;12.60;43.40
9118;DHT22;4594;50.994;7.126;2024-03-23T13:05:18;12.60;43.50
9118;DHT22;4594;50.994;7.126;2024-03-23T13:07:44;12.60;43.70
9118;DHT22;4594;50.994;7.126;2024-03-23T13:10:10;12.70;43.90
9118;DHT22;4594;50.994;7.126;2024-03-23T13:12:35;12.70;44.00
9118;DHT22;4594;50.994;7.126;2024-03-23T13:15:01;12.70;43.90
9118;DHT22;4594;50.994;7.126;2024-03-23T13:17:27;12.80;43.90
9118;DHT22;4594;50.994;7.126;2024-03-23T13:19:54;12.80;43.70
9118;DHT22;4594;50.994;7.126;2024-03-23T13:22:21;12.80;43.50
9118;DHT22;4594;50.994;7.126;2024-03-23T13:24:47;12.80;43.40
9118;DHT22;4594;50.994;7.126;2024-03-23T13:27:13;12.80;43.20
9118;DHT22;4594;50.994;7.126;2024-03-23T13:29:38;12.70;43.20
9118;DHT22;4594;50.994;7.126;2024-03-23T13:32:05;12.70;43.00
9118;DHT22;4594;50.994;7.126;2024-03-23T13:34:31;12.70;42.70
9118;DHT22;4594;50.994;7.126;2024-03-23T13:36:58;12.60;42.60
9118;DHT22;4594;50.994;7.126;2024-03-23T13:39:25;12.60;42.70
9118;DHT22;4594;50.994;7.126;2024-03-23T13:41:53;12.60;42.80
9118;DHT22;4594;50.994;7.126;2024-03-23T13:44:20;12.40;42.80
9118;DHT22;4594;50.994;7.126;2024-03-23T13:46:46;12.40;43.10
9118;DHT22;4594;50.994;7.126;2024-03-23T13:51:56;12.40;42.50
9118;DHT22;4594;50.994;7.126;2024-03-23T13:54:24;12.40;43.50
9118;DHT22;4594;50.994;7.126;2024-03-23T13:56:51;12.50;43.40
9118;DHT22;4594;50.994;7.126;2024-03-23T13:59:17;12.50;43.40
9118;DHT22;4594;50.994;7.126;2024-03-23T14:01:46;12.50;43.60
9118;DHT22;4594;50.994;7.126;2024-03-23T14:04:13;12.60;43.50
9118;DHT22;4594;50.994;7.126;2024-03-23T14:06:39;12.60;43.90
9118;DHT22;4594;50.994;7.126;2024-03-23T14:09:06;12.70;43.80
9118;DHT22;4594;50.994;7.126;2024-03-23T14:11:36;12.70;43.30
9118;DHT22;4594;50.994;7.126;2024-03-23T14:14:03;12.70;42.90
9118;DHT22;4594;50.994;7.126;2024-03-23T14:16:32;12.70;42.90
9118;DHT22;4594;50.994;7.126;2024-03-23T14:18:58;12.70;42.20
9118;DHT22;4594;50.994;7.126;2024-03-23T14:21:25;12.70;42.60
9118;DHT22;4594;50.994;7.126;2024-03-23T14:23:51;12.60;42.50
9118;DHT22;4594;50.994;7.126;2024-03-23T14:26:16;12.60;42.40
9118;DHT22;4594;50.994;7.126;2024-03-23T14:28:42;12.60;42.30
9118;DHT22;4594;50.994;7.126;2024-03-23T14:31:08;12.60;42.30
9118;DHT22;4594;50.994;7.126;2024-03-23T14:33:37;12.60;42.40
9118;DHT22;4594;50.994;7.126;2024-03-23T14:36:04;12.50;42.30
9118;DHT22;4594;50.994;7.126;2024-03-23T14:38:30;12.50;42.20
9118;DHT22;4594;50.994;7.126;2024-03-23T14:41:00;12.50;42.20
9118;DHT22;4594;50.994;7.126;2024-03-23T14:43:27;12.50;41.80
9118;DHT22;4594;50.994;7.126;2024-03-23T14:48:35;12.50;41.30
9118;DHT22;4594;50.994;7.126;2024-03-23T14:51:02;12.50;42.20
9118;DHT22;4594;50.994;7.126;2024-03-23T14:53:34;12.50;42.10
9118;DHT22;4594;50.994;7.126;2024-03-23T14:56:02;13.60;43.00
9118;DHT22;4594;50.994;7.126;2024-03-23T14:58:29;12.40;42.00
9118;DHT22;4594;50.994;7.126;2024-03-23T15:01:15;12.70;42.50
9118;DHT22;4594;50.994;7.126;2024-03-23T15:03:40;14.30;42.40
9118;DHT22;4594;50.994;7.126;2024-03-23T15:06:08;12.90;42.20
9118;DHT22;4594;50.994;7.126;2024-03-23T15:08:37;13.50;42.60
9118;DHT22;4594;50.994;7.126;2024-03-23T15:11:03;12.40;41.60
9118;DHT22;4594;50.994;7.126;2024-03-23T15:13:35;12.40;41.50
9118;DHT22;4594;50.994;7.126;2024-03-23T15:16:03;12.30;41.30
9118;DHT22;4594;50.994;7.126;2024-03-23T15:18:30;12.30;41.20
9118;DHT22;4594;50.994;7.126;2024-03-23T15:21:00;12.20;41.10
9118;DHT22;4594;50.994;7.126;2024-03-23T15:23:33;12.10;41.00
9118;DHT22;4594;50.994;7.126;2024-03-23T15:26:00;12.10;41.00
9118;DHT22;4594;50.994;7.126;2024-03-23T15:28:27;12.00;40.90
9118;DHT22;4594;50.994;7.126;2024-03-23T15:31:08;11.90;40.90
9118;DHT22;4594;50.994;7.126;2024-03-23T15:33:37;11.80;40.70
9118;DHT22;4594;50.994;7.126;2024-03-23T15:36:05;11.70;40.60
9118;DHT22;4594;50.994;7.126;2024-03-23T15:38:31;11.70;40.70
9118;DHT22;4594;50.994;7.126;2024-03-23T15:40:58;11.60;40.80
9118;DHT22;4594;50.994;7.126;2024-03-23T15:43:24;11.50;40.90
9118;DHT22;4594;50.994;7.126;2024-03-23T15:45:58;11.50;41.10
9118;DHT22;4594;50.994;7.126;2024-03-23T15:48:31;11.50;40.90
9118;DHT22;4594;50.994;7.126;2024-03-23T15:51:04;11.50;41.10
9118;DHT22;4594;50.994;7.126;2024-03-23T15:53:30;11.50;41.30
9118;DHT22;4594;50.994;7.126;2024-03-23T15:56:00;11.40;41.30
9118;DHT22;4594;50.994;7.126;2024-03-23T15:58:28;11.40;41.20
9118;DHT22;4594;50.994;7.126;2024-03-23T16:00:58;11.40;41.10
9118;DHT22;4594;50.994;7.126;2024-03-23T16:03:25;11.40;40.80
9118;DHT22;4594;50.994;7.126;2024-03-23T16:08:25;11.30;40.80
9118;DHT22;4594;50.994;7.126;2024-03-23T16:10:52;11.20;40.60
9118;DHT22;4594;50.994;7.126;2024-03-23T16:13:18;11.20;40.60
9118;DHT22;4594;50.994;7.126;2024-03-23T16:15:45;11.10;40.60
9118;DHT22;4594;50.994;7.126;2024-03-23T16:18:11;11.10;40.60
9118;DHT22;4594;50.994;7.126;2024-03-23T16:20:37;10.80;40.60
9118;DHT22;4594;50.994;7.126;2024-03-23T16:23:03;10.80;40.40
9118;DHT22;4594;50.994;7.126;2024-03-23T16:25:29;10.70;40.40
9118;DHT22;4594;50.994;7.126;2024-03-23T16:27:56;10.80;40.60
9118;DHT22;4594;50.994;7.126;2024-03-23T16:30:22;10.60;40.60
9118;DHT22;4594;50.994;7.126;2024-03-23T16:32:48;10.50;40.60
9118;DHT22;4594;50.994;7.126;2024-03-23T16:35:14;10.90;41.10
9118;DHT22;4594;50.994;7.126;2024-03-23T16:37:40;10.50;40.80
9118;DHT22;4594;50.994;7.126;2024-03-23T16:40:07;10.40;40.80
9118;DHT22;4594;50.994;7.126;2024-03-23T16:42:35;10.40;40.80
9118;DHT22;4594;50.994;7.126;2024-03-23T16:45:01;10.30;40.80
9118;DHT22;4594;50.994;7.126;2024-03-23T16:47:29;10.30;40.90
9118;DHT22;4594;50.994;7.126;2024-03-23T16:49:55;10.30;41.00
9118;DHT22;4594;50.994;7.126;2024-03-23T16:52:20;10.30;41.10
9118;DHT22;4594;50.994;7.126;2024-03-23T16:54:46;10.30;41.10
9118;DHT22;4594;50.994;7.126;2024-03-23T16:57:13;10.30;41.10
9118;DHT22;4594;50.994;7.126;2024-03-23T16:59:39;10.20;41.10
9118;DHT22;4594;50.994;7.126;2024-03-23T17:02:05;10.20;41.00
9118;DHT22;4594;50.994;7.126;2024-03-23T17:04:30;10.20;41.00
9118;DHT22;4594;50.994;7.126;2024-03-23T17:06:56;10.20;41.00
9118;DHT22;4594;50.994;7.126;2024-03-23T17:09:21;10.20;41.00
9118;DHT22;4594;50.994;7.126;2024-03-23T17:11:47;10.10;40.80
9118;DHT22;4594;50.994;7.126;2024-03-23T17:14:14;10.10;40.70